createdAt,value
2019-04-12T00:00:46.675Z,3.85
2019-04-12T00:01:37.666Z,3.98
2019-04-12T00:02:17.162Z,4.17
2019-04-12T00:02:50.771Z,4.50
2019-04-12T00:03:24.466Z,3.85
2019-04-12T00:03:58.732Z,4.90
2019-04-12T00:04:33.420Z,4.78
2019-04-12T00:05:08.126Z,3.85
2019-04-12T00:05:41.776Z,4.20
2019-04-12T00:06:15.255Z,4.50
2019-04-12T00:06:48.761Z,4.72
2019-04-12T00:07:22.338Z,4.47
2019-04-12T00:07:55.874Z,4.03
2019-04-12T00:08:30.934Z,4.10
2019-04-12T00:09:07.190Z,4.28
2019-04-12T00:09:41.845Z,4.78
2019-04-12T00:10:16.373Z,4.08
2019-04-12T00:10:49.961Z,4.70
2019-04-12T00:11:23.495Z,4.35
2019-04-12T00:11:57.069Z,3.98
2019-04-12T00:12:30.646Z,4.72
2019-04-12T00:13:04.213Z,4.75
2019-04-12T00:13:37.713Z,4.70
2019-04-12T00:14:11.237Z,4.60
2019-04-12T00:14:45.191Z,4.78
2019-04-12T00:15:18.792Z,4.67
2019-04-12T00:15:52.276Z,4.85
2019-04-12T00:16:26.005Z,4.12
2019-04-12T00:16:59.809Z,5.42
2019-04-12T00:17:33.688Z,5.92
2019-04-12T00:18:07.206Z,4.95
2019-04-12T00:18:42.958Z,4.72
2019-04-12T00:19:16.197Z,4.87
2019-04-12T00:19:49.742Z,4.92
2019-04-12T00:20:23.270Z,4.60
2019-04-12T00:20:56.799Z,4.40
2019-04-12T00:21:30.257Z,4.78
2019-04-12T00:22:04.092Z,5.10
2019-04-12T00:22:37.736Z,4.78
2019-04-12T00:23:11.268Z,4.42
2019-04-12T00:23:45.714Z,4.65
2019-04-12T00:24:20.112Z,5.15
2019-04-12T00:24:53.783Z,5.05
2019-04-12T00:25:27.900Z,4.70
2019-04-12T00:26:01.490Z,5.00
2019-04-12T00:26:35.124Z,5.75
2019-04-12T00:27:08.793Z,4.50
2019-04-12T00:27:42.374Z,5.22
2019-04-12T00:28:19.150Z,4.83
2019-04-12T00:28:51.301Z,4.80
2019-04-12T00:29:24.968Z,5.15
2019-04-12T00:29:58.914Z,4.67
2019-04-12T00:30:32.819Z,5.08
2019-04-12T00:31:06.477Z,5.85
2019-04-12T00:31:40.280Z,4.97
2019-04-12T00:32:13.753Z,4.83
2019-04-12T00:32:49.133Z,5.45
2019-04-12T00:33:22.951Z,5.10
2019-04-12T00:33:56.863Z,5.60
2019-04-12T00:34:30.389Z,4.95
2019-04-12T00:35:04.284Z,4.60
2019-04-12T00:35:37.869Z,4.80
2019-04-12T00:36:11.570Z,5.40
2019-04-12T00:36:48.104Z,5.35
2019-04-12T00:37:24.097Z,5.15
2019-04-12T00:37:57.026Z,5.35
2019-04-12T00:38:30.552Z,4.95
2019-04-12T00:39:06.079Z,6.17
2019-04-12T00:39:39.625Z,6.28
2019-04-12T00:40:13.370Z,5.83
2019-04-12T00:40:46.958Z,5.47
2019-04-12T00:41:20.666Z,6.28
2019-04-12T00:41:54.267Z,5.75
2019-04-12T00:42:27.852Z,5.95
2019-04-12T00:43:03.129Z,6.55
2019-04-12T00:43:36.670Z,5.97
2019-04-12T00:44:10.669Z,5.80
2019-04-12T00:44:44.524Z,5.60
2019-04-12T00:45:18.224Z,6.20
2019-04-12T00:45:52.047Z,5.53
2019-04-12T00:46:25.847Z,5.22
2019-04-12T00:47:04.430Z,5.65
2019-04-12T00:47:40.255Z,5.40
2019-04-12T00:48:13.322Z,5.87
2019-04-12T00:48:46.883Z,6.08
2019-04-12T00:49:20.493Z,6.25
2019-04-12T00:49:54.107Z,5.67
2019-04-12T00:50:27.734Z,5.58
2019-04-12T00:51:01.463Z,6.58
2019-04-12T00:51:35.059Z,5.90
2019-04-12T00:52:13.951Z,5.35
2019-04-12T00:52:44.626Z,6.97
2019-04-12T00:53:18.197Z,6.50
2019-04-12T00:53:51.771Z,6.25
2019-04-12T00:54:25.308Z,5.72
2019-04-12T00:54:58.878Z,5.90
2019-04-12T00:55:32.442Z,6.00
2019-04-12T00:56:05.976Z,5.58
2019-04-12T00:56:39.502Z,6.40
2019-04-12T00:57:15.401Z,7.45
2019-04-12T00:57:48.430Z,6.35
2019-04-12T00:58:21.948Z,5.55
2019-04-12T00:58:55.458Z,6.95
2019-04-12T00:59:29.025Z,5.80
2019-04-12T01:00:02.656Z,6.47
2019-04-12T01:00:55.414Z,5.58
2019-04-12T01:01:47.461Z,5.30
2019-04-12T01:02:39.802Z,5.35
2019-04-12T01:03:14.029Z,5.28
2019-04-12T01:03:52.004Z,5.37
2019-04-12T01:04:30.107Z,5.20
2019-04-12T01:05:06.647Z,5.78
2019-04-12T01:05:40.265Z,4.92
2019-04-12T01:06:15.821Z,5.60
2019-04-12T01:06:49.150Z,5.55
2019-04-12T01:07:22.934Z,6.40
2019-04-12T01:08:10.342Z,5.83
2019-04-12T01:08:43.876Z,5.12
2019-04-12T01:09:22.142Z,5.87
2019-04-12T01:09:53.963Z,6.50
2019-04-12T01:10:28.038Z,6.30
2019-04-12T01:11:06.878Z,6.85
2019-04-12T01:11:40.343Z,5.85
2019-04-12T01:12:13.887Z,5.33
2019-04-12T01:12:47.459Z,5.95
2019-04-12T01:13:20.993Z,5.55
2019-04-12T01:13:57.187Z,6.10
2019-04-12T01:14:29.839Z,5.72
2019-04-12T01:15:03.542Z,5.47
2019-04-12T01:15:37.961Z,5.70
2019-04-12T01:16:11.506Z,5.85
2019-04-12T01:16:47.926Z,6.12
2019-04-12T01:17:21.503Z,5.80
2019-04-12T01:17:55.058Z,5.90
2019-04-12T01:18:30.184Z,6.08
2019-04-12T01:19:03.870Z,6.58
2019-04-12T01:19:37.392Z,6.33
2019-04-12T01:20:10.909Z,6.47
2019-04-12T01:20:45.532Z,5.75
2019-04-12T01:21:19.632Z,5.87
2019-04-12T01:21:53.129Z,5.83
2019-04-12T01:22:28.071Z,5.47
2019-04-12T01:23:02.404Z,6.20
2019-04-12T01:23:36.399Z,5.75
2019-04-12T01:24:10.803Z,5.15
2019-04-12T01:24:45.129Z,5.95
2019-04-12T01:25:18.679Z,6.33
2019-04-12T01:25:52.222Z,6.53
2019-04-12T01:26:25.746Z,5.72
2019-04-12T01:26:59.267Z,5.90
2019-04-12T01:27:32.762Z,5.95
2019-04-12T01:28:06.496Z,6.12
2019-04-12T01:28:39.980Z,6.05
2019-04-12T01:29:13.525Z,5.80
2019-04-12T01:29:48.684Z,6.42
2019-04-12T01:30:22.398Z,6.08
2019-04-12T01:30:55.854Z,6.53
2019-04-12T01:31:29.366Z,5.85
2019-04-12T01:32:02.857Z,6.67
2019-04-12T01:32:36.352Z,5.90
2019-04-12T01:33:09.833Z,6.05
2019-04-12T01:33:43.430Z,6.53
2019-04-12T01:34:16.925Z,6.05
2019-04-12T01:34:50.352Z,6.45
2019-04-12T01:35:23.845Z,6.35
2019-04-12T01:35:57.486Z,6.50
2019-04-12T01:36:30.991Z,6.65
2019-04-12T01:37:04.479Z,6.45
2019-04-12T01:37:37.975Z,6.33
2019-04-12T01:38:11.467Z,6.47
2019-04-12T01:38:44.969Z,6.30
2019-04-12T01:39:18.483Z,6.20
2019-04-12T01:39:51.974Z,5.95
2019-04-12T01:40:25.481Z,6.50
2019-04-12T01:40:59.091Z,6.58
2019-04-12T01:41:32.565Z,6.42
2019-04-12T01:42:06.074Z,6.10
2019-04-12T01:42:39.647Z,6.50
2019-04-12T01:43:13.130Z,5.58
2019-04-12T01:43:46.627Z,5.80
2019-04-12T01:44:20.137Z,6.50
2019-04-12T01:44:53.835Z,6.22
2019-04-12T01:45:27.327Z,6.60
2019-04-12T01:46:00.854Z,6.40
2019-04-12T01:46:34.549Z,6.65
2019-04-12T01:47:08.088Z,6.47
2019-04-12T01:47:41.585Z,6.92
2019-04-12T01:48:15.154Z,6.92
2019-04-12T01:48:48.673Z,6.30
2019-04-12T01:49:22.181Z,5.80
2019-04-12T01:49:55.729Z,7.58
2019-04-12T01:50:29.219Z,7.12
2019-04-12T01:51:02.733Z,5.95
2019-04-12T01:51:36.256Z,6.85
2019-04-12T01:52:09.770Z,6.30
2019-04-12T01:52:43.377Z,6.50
2019-04-12T01:53:16.890Z,7.03
2019-04-12T01:53:50.383Z,7.67
2019-04-12T01:54:23.946Z,6.50
2019-04-12T01:55:08.447Z,6.80
2019-04-12T01:55:32.642Z,6.80
2019-04-12T01:56:06.135Z,7.40
2019-04-12T01:56:39.647Z,7.03
2019-04-12T01:57:13.149Z,7.20
2019-04-12T01:57:46.625Z,6.85
2019-04-12T01:58:20.115Z,8.55
2019-04-12T01:58:53.597Z,6.95
2019-04-12T01:59:27.078Z,6.47
2019-04-12T02:00:00.614Z,7.75
2019-04-12T02:00:34.106Z,7.40
2019-04-12T02:01:07.587Z,7.75
2019-04-12T02:01:41.097Z,6.50
2019-04-12T02:02:14.598Z,8.23
2019-04-12T02:02:48.146Z,7.15
2019-04-12T02:03:21.642Z,7.85
2019-04-12T02:03:55.214Z,7.40
2019-04-12T02:04:28.794Z,7.35
2019-04-12T02:05:02.300Z,7.80
2019-04-12T02:05:35.792Z,7.75
2019-04-12T02:06:09.289Z,7.10
2019-04-12T02:06:42.950Z,7.55
2019-04-12T02:07:16.437Z,6.67
2019-04-12T02:07:49.962Z,7.95
2019-04-12T02:08:23.379Z,8.28
2019-04-12T02:08:56.870Z,8.38
2019-04-12T02:09:30.369Z,7.60
2019-04-12T02:10:04.636Z,8.00
2019-04-12T02:10:38.702Z,7.42
2019-04-12T02:11:12.189Z,7.28
2019-04-12T02:11:46.445Z,7.17
2019-04-12T02:12:19.933Z,8.10
2019-04-12T02:12:53.416Z,6.83
2019-04-12T02:13:26.901Z,7.17
2019-04-12T02:14:00.686Z,8.03
2019-04-12T02:14:34.170Z,8.00
2019-04-12T02:15:07.958Z,7.28
2019-04-12T02:15:41.457Z,7.92
2019-04-12T02:16:14.955Z,7.15
2019-04-12T02:16:49.382Z,7.60
2019-04-12T02:17:22.900Z,7.00
2019-04-12T02:17:56.395Z,7.55
2019-04-12T02:18:29.990Z,7.65
2019-04-12T02:19:03.526Z,7.10
2019-04-12T02:19:37.036Z,7.55
2019-04-12T02:20:10.556Z,8.15
2019-04-12T02:20:44.121Z,7.85
2019-04-12T02:21:17.921Z,7.80
2019-04-12T02:21:51.455Z,7.35
2019-04-12T02:22:24.984Z,7.60
2019-04-12T02:22:58.470Z,9.18
2019-04-12T02:23:31.977Z,8.18
2019-04-12T02:24:05.518Z,8.30
2019-04-12T02:24:39.031Z,7.97
2019-04-12T02:25:20.918Z,7.85
2019-04-12T02:25:47.745Z,8.45
2019-04-12T02:26:21.231Z,7.90
2019-04-12T02:26:54.752Z,7.53
2019-04-12T02:27:28.225Z,7.50
2019-04-12T02:28:01.716Z,7.78
2019-04-12T02:28:53.571Z,8.03
2019-04-12T02:29:27.086Z,8.08
2019-04-12T02:30:00.647Z,7.95
2019-04-12T02:30:35.369Z,8.25
2019-04-12T02:31:09.382Z,7.47
2019-04-12T02:32:01.945Z,7.70
2019-04-12T02:32:44.808Z,7.15
2019-04-12T02:33:18.303Z,8.35
2019-04-12T02:33:51.802Z,6.70
2019-04-12T02:34:25.354Z,8.25
2019-04-12T02:34:59.278Z,8.15
2019-04-12T02:35:37.909Z,7.65
2019-04-12T02:36:11.777Z,8.40
2019-04-12T02:36:45.531Z,7.58
2019-04-12T02:37:19.181Z,7.60
2019-04-12T02:37:52.695Z,8.43
2019-04-12T02:38:26.249Z,7.47
2019-04-12T02:38:59.743Z,7.15
2019-04-12T02:39:33.227Z,8.88
2019-04-12T02:40:06.931Z,8.35
2019-04-12T02:40:41.010Z,8.23
2019-04-12T02:41:15.719Z,7.95
2019-04-12T02:41:50.820Z,8.38
2019-04-12T02:42:24.626Z,8.63
2019-04-12T02:42:58.822Z,7.87
2019-04-12T02:43:32.306Z,8.13
2019-04-12T02:44:06.109Z,7.62
2019-04-12T02:44:39.924Z,7.60
2019-04-12T02:45:13.689Z,7.92
2019-04-12T02:45:48.878Z,8.68
2019-04-12T02:46:25.652Z,7.92
2019-04-12T02:47:19.337Z,8.38
2019-04-12T02:47:54.241Z,7.72
2019-04-12T02:48:57.681Z,8.05
2019-04-12T02:49:41.850Z,7.67
2019-04-12T02:50:43.825Z,7.62
2019-04-12T02:51:33.064Z,7.28
2019-04-12T02:52:17.123Z,7.10
2019-04-12T02:53:06.982Z,8.70
2019-04-12T02:53:52.851Z,6.90
2019-04-12T02:54:50.288Z,8.10
2019-04-12T02:55:37.738Z,7.30
2019-04-12T02:56:30.187Z,7.00
2019-04-12T02:57:11.608Z,7.03
2019-04-12T02:57:59.065Z,7.80
2019-04-12T02:58:46.355Z,6.80
2019-04-12T02:59:31.615Z,7.22
2019-04-12T03:00:08.534Z,8.25
2019-04-12T03:00:49.720Z,7.42
2019-04-12T03:01:23.915Z,8.35
2019-04-12T03:01:58.964Z,7.17
2019-04-12T03:02:34.478Z,7.35
2019-04-12T03:03:08.331Z,8.10
2019-04-12T03:03:42.409Z,7.92
2019-04-12T03:04:15.902Z,7.35
2019-04-12T03:04:49.804Z,7.67
2019-04-12T03:05:23.290Z,7.30
2019-04-12T03:05:56.776Z,8.63
2019-04-12T03:06:30.459Z,8.30
2019-04-12T03:07:04.096Z,8.73
2019-04-12T03:07:37.685Z,8.45
2019-04-12T03:08:11.166Z,8.28
2019-04-12T03:08:44.670Z,8.68
2019-04-12T03:09:19.635Z,8.85
2019-04-12T03:09:54.430Z,7.97
2019-04-12T03:10:28.210Z,7.40
2019-04-12T03:11:01.710Z,7.83
2019-04-12T03:11:36.828Z,8.20
2019-04-12T03:12:11.116Z,7.83
2019-04-12T03:12:45.161Z,8.25
2019-04-12T03:13:19.759Z,8.00
2019-04-12T03:13:54.870Z,8.13
2019-04-12T03:14:28.990Z,7.55
2019-04-12T03:15:03.901Z,7.72
2019-04-12T03:15:37.510Z,7.97
2019-04-12T03:16:11.330Z,7.22
2019-04-12T03:16:45.762Z,7.60
2019-04-12T03:17:19.261Z,7.72
2019-04-12T03:17:53.259Z,8.10
2019-04-12T03:18:26.786Z,8.10
2019-04-12T03:19:00.702Z,7.30
2019-04-12T03:19:34.503Z,8.40
2019-04-12T03:20:08.211Z,9.50
2019-04-12T03:20:41.731Z,7.30
2019-04-12T03:21:15.861Z,7.30
2019-04-12T03:21:49.686Z,8.90
2019-04-12T03:22:23.295Z,7.72
2019-04-12T03:22:57.861Z,9.05
2019-04-12T03:23:31.652Z,7.30
2019-04-12T03:24:05.447Z,8.13
2019-04-12T03:24:40.178Z,7.75
2019-04-12T03:25:14.099Z,8.10
2019-04-12T03:25:53.927Z,8.40
2019-04-12T03:26:25.056Z,8.50
2019-04-12T03:26:59.151Z,8.05
2019-04-12T03:27:32.791Z,8.40
2019-04-12T03:28:06.361Z,8.30
2019-04-12T03:28:40.004Z,7.70
2019-04-12T03:29:14.206Z,7.72
2019-04-12T03:29:47.719Z,7.80
2019-04-12T03:30:21.559Z,9.00
2019-04-12T03:30:55.657Z,7.65
2019-04-12T03:31:30.712Z,7.35
2019-04-12T03:32:04.640Z,7.20
2019-04-12T03:32:38.452Z,7.72
2019-04-12T03:33:12.809Z,7.72
2019-04-12T03:33:46.397Z,6.95
2019-04-12T03:34:19.961Z,7.33
2019-04-12T03:34:53.478Z,7.53
2019-04-12T03:35:27.354Z,7.35
2019-04-12T03:36:01.065Z,8.18
2019-04-12T03:36:34.562Z,6.72
2019-04-12T03:37:08.072Z,7.70
2019-04-12T03:37:41.565Z,8.63
2019-04-12T03:38:16.310Z,7.45
2019-04-12T03:38:49.806Z,7.45
2019-04-12T03:39:23.401Z,7.75
2019-04-12T03:39:57.203Z,6.90
2019-04-12T03:40:30.766Z,7.67
2019-04-12T03:41:04.309Z,7.25
2019-04-12T03:41:37.788Z,7.92
2019-04-12T03:42:11.656Z,7.40
2019-04-12T03:42:45.466Z,7.35
2019-04-12T03:43:19.015Z,7.50
2019-04-12T03:43:52.762Z,8.25
2019-04-12T03:44:26.252Z,7.95
2019-04-12T03:45:00.146Z,7.40
2019-04-12T03:45:33.738Z,8.78
2019-04-12T03:46:07.601Z,7.80
2019-04-12T03:46:41.260Z,7.83
2019-04-12T03:47:14.775Z,7.40
2019-04-12T03:47:48.584Z,7.65
2019-04-12T03:48:22.250Z,7.80
2019-04-12T03:48:56.185Z,7.75
2019-04-12T03:49:29.793Z,7.55
2019-04-12T03:50:03.323Z,7.85
2019-04-12T03:50:37.533Z,7.78
2019-04-12T03:51:11.133Z,8.50
2019-04-12T03:51:44.819Z,7.80
2019-04-12T03:52:18.564Z,7.58
2019-04-12T03:52:52.141Z,7.65
2019-04-12T03:53:26.948Z,8.88
2019-04-12T03:54:00.584Z,8.63
2019-04-12T03:54:34.266Z,7.97
2019-04-12T03:55:07.963Z,8.13
2019-04-12T03:55:41.520Z,7.53
2019-04-12T03:56:15.165Z,7.30
2019-04-12T03:56:48.881Z,8.20
2019-04-12T03:57:23.310Z,7.70
2019-04-12T03:57:57.234Z,8.45
2019-04-12T03:58:30.815Z,8.63
2019-04-12T03:59:19.891Z,8.40
2019-04-12T03:59:53.651Z,7.35
2019-04-12T04:00:28.319Z,7.50
2019-04-12T04:01:02.012Z,8.60
2019-04-12T04:01:35.577Z,8.30
2019-04-12T04:02:28.180Z,7.40
2019-04-12T04:03:01.698Z,7.28
2019-04-12T04:03:35.872Z,7.12
2019-04-12T04:04:09.362Z,8.58
2019-04-12T04:04:42.956Z,7.95
2019-04-12T04:05:16.482Z,7.10
2019-04-12T04:05:50.129Z,6.92
2019-04-12T04:06:23.667Z,8.00
2019-04-12T04:06:57.601Z,7.35
2019-04-12T04:07:31.085Z,7.53
2019-04-12T04:08:04.687Z,7.65
2019-04-12T04:08:38.220Z,8.23
2019-04-12T04:09:11.803Z,7.22
2019-04-12T04:09:45.698Z,7.90
2019-04-12T04:10:19.182Z,8.15
2019-04-12T04:10:53.090Z,8.25
2019-04-12T04:11:26.653Z,7.55
2019-04-12T04:12:03.243Z,6.95
2019-04-12T04:12:37.111Z,8.45
2019-04-12T04:13:10.651Z,7.72
2019-04-12T04:13:44.713Z,8.45
2019-04-12T04:14:19.759Z,7.95
2019-04-12T04:14:53.554Z,8.98
2019-04-12T04:15:27.242Z,7.90
2019-04-12T04:16:01.703Z,7.70
2019-04-12T04:16:37.162Z,8.13
2019-04-12T04:17:39.367Z,7.40
2019-04-12T04:18:17.389Z,7.30
2019-04-12T04:18:51.082Z,8.98
2019-04-12T04:19:27.098Z,7.65
2019-04-12T04:20:10.535Z,7.00
2019-04-12T04:21:15.385Z,7.40
2019-04-12T04:21:52.018Z,7.85
2019-04-12T04:22:25.677Z,7.90
2019-04-12T04:23:07.610Z,8.80
2019-04-12T04:23:46.973Z,8.40
2019-04-12T04:24:24.829Z,8.03
2019-04-12T04:25:00.868Z,8.18
2019-04-12T04:25:52.977Z,7.03
2019-04-12T04:26:34.350Z,8.33
2019-04-12T04:27:29.796Z,7.33
2019-04-12T04:28:16.768Z,7.42
2019-04-12T04:28:59.677Z,7.50
2019-04-12T04:29:58.935Z,7.55
2019-04-12T04:30:57.251Z,7.60
2019-04-12T04:31:39.935Z,6.70
2019-04-12T04:32:36.354Z,7.65
2019-04-12T04:33:09.959Z,7.42
2019-04-12T04:33:43.499Z,7.35
2019-04-12T04:34:17.343Z,7.33
2019-04-12T04:34:51.634Z,7.95
2019-04-12T04:35:25.168Z,7.72
2019-04-12T04:35:58.848Z,7.37
2019-04-12T04:36:33.002Z,7.47
2019-04-12T04:37:06.548Z,8.38
2019-04-12T04:37:41.514Z,8.85
2019-04-12T04:38:18.686Z,7.37
2019-04-12T04:38:52.413Z,7.25
2019-04-12T04:39:26.971Z,8.28
2019-04-12T04:40:00.797Z,8.15
2019-04-12T04:40:34.381Z,7.30
2019-04-12T04:41:08.457Z,8.60
2019-04-12T04:41:42.204Z,8.23
2019-04-12T04:42:17.044Z,7.17
2019-04-12T04:42:50.764Z,7.33
2019-04-12T04:43:24.355Z,7.50
2019-04-12T04:43:58.033Z,8.63
2019-04-12T04:44:31.858Z,8.28
2019-04-12T04:45:05.546Z,7.75
2019-04-12T04:45:39.043Z,7.35
2019-04-12T04:46:12.804Z,8.70
2019-04-12T04:46:46.413Z,7.15
2019-04-12T04:47:19.994Z,8.98
2019-04-12T04:47:53.749Z,7.75
2019-04-12T04:48:27.377Z,7.45
2019-04-12T04:49:01.285Z,7.62
2019-04-12T04:49:34.824Z,8.10
2019-04-12T04:50:08.472Z,7.22
2019-04-12T04:50:42.353Z,8.33
2019-04-12T04:51:15.879Z,7.50
2019-04-12T04:51:49.590Z,8.15
2019-04-12T04:52:23.617Z,7.95
2019-04-12T04:52:57.209Z,6.80
2019-04-12T04:53:30.716Z,7.72
2019-04-12T04:54:05.257Z,6.62
2019-04-12T04:54:38.762Z,7.60
2019-04-12T04:55:12.759Z,8.15
2019-04-12T04:55:46.630Z,8.20
2019-04-12T04:56:20.463Z,8.58
2019-04-12T04:56:53.977Z,7.72
2019-04-12T04:57:27.711Z,7.28
2019-04-12T04:58:01.256Z,7.67
2019-04-12T04:58:34.828Z,7.70
2019-04-12T04:59:08.443Z,7.58
2019-04-12T04:59:42.634Z,7.08
2019-04-12T05:00:16.308Z,7.20
2019-04-12T05:00:50.178Z,7.17
2019-04-12T05:01:24.053Z,8.03
2019-04-12T05:01:58.187Z,7.40
2019-04-12T05:02:31.762Z,7.33
2019-04-12T05:03:08.203Z,7.42
2019-04-12T05:03:40.865Z,7.78
2019-04-12T05:04:15.017Z,7.53
2019-04-12T05:04:48.569Z,8.15
2019-04-12T05:05:22.250Z,6.28
2019-04-12T05:05:55.905Z,7.30
2019-04-12T05:06:29.676Z,7.53
2019-04-12T05:07:03.678Z,8.25
2019-04-12T05:07:37.572Z,8.35
2019-04-12T05:08:11.355Z,7.45
2019-04-12T05:08:45.074Z,9.30
2019-04-12T05:09:18.813Z,7.28
2019-04-12T05:09:52.409Z,7.40
2019-04-12T05:10:26.429Z,7.85
2019-04-12T05:11:00.310Z,8.60
2019-04-12T05:11:33.974Z,7.25
2019-04-12T05:12:07.805Z,7.28
2019-04-12T05:12:41.804Z,7.33
2019-04-12T05:13:15.880Z,7.92
2019-04-12T05:13:49.663Z,8.43
2019-04-12T05:14:24.001Z,7.40
2019-04-12T05:14:57.885Z,7.47
2019-04-12T05:15:31.417Z,8.30
2019-04-12T05:16:05.656Z,7.92
2019-04-12T05:16:39.807Z,7.50
2019-04-12T05:17:14.287Z,7.85
2019-04-12T05:17:48.660Z,8.08
2019-04-12T05:18:22.517Z,7.85
2019-04-12T05:18:56.808Z,6.85
2019-04-12T05:19:30.784Z,6.85
2019-04-12T05:20:04.952Z,7.33
2019-04-12T05:20:40.087Z,7.05
2019-04-12T05:21:14.975Z,7.70
2019-04-12T05:21:49.773Z,9.23
2019-04-12T05:22:24.258Z,8.10
2019-04-12T05:22:59.665Z,7.25
2019-04-12T05:23:33.866Z,8.50
2019-04-12T05:24:09.217Z,7.78
2019-04-12T05:24:43.418Z,8.85
2019-04-12T05:25:18.513Z,9.10
2019-04-12T05:25:52.766Z,9.60
2019-04-12T05:26:26.930Z,8.15
2019-04-12T05:27:01.226Z,6.78
2019-04-12T05:27:36.330Z,7.37
2019-04-12T05:28:10.528Z,8.35
2019-04-12T05:28:45.189Z,8.03
2019-04-12T05:29:19.264Z,8.00
2019-04-12T05:29:53.326Z,7.85
2019-04-12T05:30:29.548Z,8.30
2019-04-12T05:31:05.912Z,7.55
2019-04-12T05:31:46.069Z,7.60
2019-04-12T05:32:21.297Z,8.23
2019-04-12T05:33:01.500Z,7.00
2019-04-12T05:33:42.299Z,6.92
2019-04-12T05:34:21.363Z,6.80
2019-04-12T05:34:57.929Z,7.33
2019-04-12T05:35:33.419Z,6.08
2019-04-12T05:36:08.337Z,7.35
2019-04-12T05:36:42.708Z,8.48
2019-04-12T05:37:18.661Z,6.00
2019-04-12T05:37:53.393Z,6.80
2019-04-12T05:38:27.955Z,6.50
2019-04-12T05:39:05.593Z,5.95
2019-04-12T05:39:41.512Z,6.45
2019-04-12T05:40:16.533Z,6.75
2019-04-12T05:40:54.771Z,6.53
2019-04-12T05:41:28.545Z,6.47
2019-04-12T05:42:02.912Z,5.55
2019-04-12T05:42:39.464Z,5.70
2019-04-12T05:43:14.790Z,5.70
2019-04-12T05:43:52.760Z,6.40
2019-04-12T05:44:28.817Z,5.53
2019-04-12T05:45:04.708Z,5.28
2019-04-12T05:45:54.140Z,4.97
2019-04-12T05:46:53.169Z,4.50
2019-04-12T05:47:40.814Z,5.05
2019-04-12T05:48:19.602Z,5.47
2019-04-12T05:49:01.788Z,5.50
2019-04-12T05:49:48.600Z,5.45
2019-04-12T05:50:26.788Z,5.95
2019-04-12T05:51:01.587Z,4.97
2019-04-12T05:51:35.415Z,5.00
2019-04-12T05:52:10.527Z,6.03
2019-04-12T05:52:46.101Z,6.03
2019-04-12T05:53:20.685Z,6.20
2019-04-12T05:53:56.655Z,5.22
2019-04-12T05:54:35.248Z,5.37
2019-04-12T05:55:13.250Z,5.45
2019-04-12T05:55:51.368Z,4.55
2019-04-12T05:56:24.952Z,5.50
2019-04-12T05:56:59.614Z,4.70
2019-04-12T05:57:34.299Z,4.70
2019-04-12T05:58:14.869Z,4.83
2019-04-12T05:58:54.024Z,4.40
2019-04-12T05:59:35.853Z,4.72
2019-04-12T06:00:18.771Z,4.97
2019-04-12T06:01:16.972Z,4.28
2019-04-12T06:02:06.676Z,4.75
2019-04-12T06:02:42.414Z,4.35
2019-04-12T06:03:16.939Z,4.33
2019-04-12T06:03:52.862Z,4.12
2019-04-12T06:04:29.590Z,4.37
2019-04-12T06:05:06.358Z,4.30
2019-04-12T06:05:43.616Z,4.67
2019-04-12T06:06:20.343Z,4.30
2019-04-12T06:06:55.653Z,3.90
2019-04-12T06:07:30.610Z,3.80
2019-04-12T06:08:08.002Z,4.50
2019-04-12T06:08:57.092Z,4.20
2019-04-12T06:09:23.389Z,4.08
2019-04-12T06:09:59.338Z,4.20
2019-04-12T06:10:38.942Z,4.83
2019-04-12T06:11:14.628Z,4.42
2019-04-12T06:11:50.808Z,3.90
2019-04-12T06:12:24.975Z,4.60
2019-04-12T06:12:59.624Z,4.92
2019-04-12T06:13:34.500Z,3.62
2019-04-12T06:14:13.127Z,4.60
2019-04-12T06:14:49.723Z,4.15
2019-04-12T06:15:30.279Z,4.55
2019-04-12T06:16:06.134Z,4.47
2019-04-12T06:16:40.168Z,4.20
2019-04-12T06:17:16.313Z,4.33
2019-04-12T06:17:50.381Z,4.87
2019-04-12T06:18:26.016Z,4.70
2019-04-12T06:19:00.608Z,4.58
2019-04-12T06:19:35.783Z,4.78
2019-04-12T06:20:28.576Z,4.83
2019-04-12T06:21:19.258Z,5.40
2019-04-12T06:22:15.370Z,4.47
2019-04-12T06:22:50.838Z,3.80
2019-04-12T06:23:25.442Z,4.33
2019-04-12T06:24:04.369Z,4.28
2019-04-12T06:24:39.453Z,4.20
2019-04-12T06:25:20.322Z,4.45
2019-04-12T06:26:04.594Z,3.85
2019-04-12T06:27:15.046Z,4.30
2019-04-12T06:27:50.763Z,3.33
2019-04-12T06:28:24.465Z,3.55
2019-04-12T06:28:59.152Z,3.83
2019-04-12T06:29:33.426Z,4.25
2019-04-12T06:30:08.671Z,4.25
2019-04-12T06:30:45.659Z,3.52
2019-04-12T06:31:19.626Z,3.90
2019-04-12T06:31:53.491Z,4.00
2019-04-12T06:32:27.211Z,3.60
2019-04-12T06:33:01.259Z,3.30
2019-04-12T06:33:35.135Z,4.15
2019-04-12T06:34:09.726Z,4.03
2019-04-12T06:34:43.869Z,3.87
2019-04-12T06:35:17.865Z,4.20
2019-04-12T06:35:52.454Z,3.80
2019-04-12T06:36:26.183Z,3.95
2019-04-12T06:36:59.769Z,3.10
2019-04-12T06:37:34.171Z,3.60
2019-04-12T06:38:07.954Z,3.65
2019-04-12T06:38:41.962Z,3.80
2019-04-12T06:39:15.868Z,4.20
2019-04-12T06:39:50.691Z,4.05
2019-04-12T06:40:24.916Z,4.28
2019-04-12T06:40:59.311Z,4.12
2019-04-12T06:41:33.189Z,4.17
2019-04-12T06:42:07.580Z,4.20
2019-04-12T06:42:41.302Z,4.50
2019-04-12T06:43:15.486Z,4.35
2019-04-12T06:43:50.226Z,4.90
2019-04-12T06:44:24.148Z,4.12
2019-04-12T06:44:58.238Z,4.10
2019-04-12T06:45:32.042Z,3.65
2019-04-12T06:46:07.925Z,3.60
2019-04-12T06:46:42.082Z,3.70
2019-04-12T06:47:16.151Z,3.80
2019-04-12T06:47:50.097Z,4.33
2019-04-12T06:48:23.963Z,4.28
2019-04-12T06:48:58.483Z,4.72
2019-04-12T06:49:32.241Z,3.65
2019-04-12T06:50:07.353Z,4.25
2019-04-12T06:50:46.735Z,4.08
2019-04-12T06:51:21.432Z,4.60
2019-04-12T06:51:55.827Z,4.37
2019-04-12T06:52:29.754Z,4.58
2019-04-12T06:53:03.335Z,3.55
2019-04-12T06:53:37.188Z,4.25
2019-04-12T06:54:11.351Z,4.42
2019-04-12T06:54:45.074Z,3.92
2019-04-12T06:55:21.028Z,5.00
2019-04-12T06:56:10.064Z,4.03
2019-04-12T06:57:07.154Z,4.28
2019-04-12T06:57:41.615Z,4.00
2019-04-12T06:58:16.428Z,4.50
2019-04-12T06:58:50.419Z,4.70
2019-04-12T06:59:26.297Z,3.50
2019-04-12T07:00:19.732Z,3.87
2019-04-12T07:01:08.160Z,4.65
2019-04-12T07:02:04.272Z,3.75
2019-04-12T07:02:45.683Z,3.35
2019-04-12T07:03:38.932Z,4.00
2019-04-12T07:04:26.586Z,4.67
2019-04-12T07:05:00.024Z,4.12
2019-04-12T07:05:35.317Z,4.42
2019-04-12T07:06:10.223Z,4.58
2019-04-12T07:06:45.919Z,4.50
2019-04-12T07:07:21.183Z,4.22
2019-04-12T07:07:56.100Z,4.40
2019-04-12T07:08:38.547Z,4.20
2019-04-12T07:09:12.326Z,3.92
2019-04-12T07:09:46.683Z,4.00
2019-04-12T07:10:21.254Z,5.58
2019-04-12T07:10:54.743Z,4.40
2019-04-12T07:11:28.423Z,4.47
2019-04-12T07:12:02.375Z,5.65
2019-04-12T07:12:38.842Z,5.15
2019-04-12T07:13:12.482Z,4.42
2019-04-12T07:13:49.685Z,3.70
2019-04-12T07:14:23.544Z,4.00
2019-04-12T07:21:16.959Z,5.50
2019-04-12T07:21:50.763Z,4.20
2019-04-12T07:22:24.502Z,4.33
2019-04-12T07:22:59.269Z,4.83
2019-04-12T07:23:33.057Z,5.00
2019-04-12T07:24:06.573Z,5.03
2019-04-12T07:24:40.233Z,5.95
2019-04-12T07:25:13.717Z,4.75
2019-04-12T07:25:47.186Z,6.05
2019-04-12T07:26:20.673Z,5.90
2019-04-12T07:26:54.182Z,5.50
2019-04-12T07:27:34.306Z,6.62
2019-04-12T07:28:02.982Z,5.05
2019-04-12T07:28:36.584Z,4.40
2019-04-12T07:29:10.112Z,4.40
2019-04-12T07:29:43.595Z,4.72
2019-04-12T07:30:17.348Z,4.05
2019-04-12T07:30:56.697Z,4.53
2019-04-12T07:31:26.223Z,4.90
2019-04-12T07:31:59.725Z,5.15
2019-04-12T07:32:33.210Z,4.22
2019-04-12T07:33:06.714Z,5.62
2019-04-12T07:33:42.704Z,4.95
2019-04-12T07:34:16.257Z,4.10
2019-04-12T07:34:49.823Z,5.08
2019-04-12T07:35:23.333Z,4.78
2019-04-12T07:35:56.951Z,4.65
2019-04-12T07:36:30.558Z,4.42
2019-04-12T07:37:04.078Z,4.55
2019-04-12T07:37:37.571Z,5.92
2019-04-12T07:38:11.147Z,5.58
2019-04-12T07:38:44.906Z,5.72
2019-04-12T07:39:18.432Z,4.87
2019-04-12T07:39:52.916Z,4.67
2019-04-12T07:40:26.839Z,4.25
2019-04-12T07:41:01.010Z,4.20
2019-04-12T07:41:35.184Z,4.65
2019-04-12T07:42:08.918Z,4.65
2019-04-12T07:42:42.666Z,4.00
2019-04-12T07:43:16.706Z,4.80
2019-04-12T07:43:50.673Z,5.20
2019-04-12T07:44:24.520Z,4.00
2019-04-12T07:44:58.410Z,4.45
2019-04-12T07:45:32.182Z,3.98
2019-04-12T07:46:05.967Z,4.37
2019-04-12T07:46:39.620Z,5.50
2019-04-12T07:47:13.270Z,4.30
2019-04-12T07:47:47.075Z,4.78
2019-04-12T07:48:20.990Z,6.25
2019-04-12T07:48:54.883Z,5.10
2019-04-12T07:49:28.778Z,5.08
2019-04-12T07:50:06.992Z,4.20
2019-04-12T07:50:52.078Z,4.15
2019-04-12T07:51:43.381Z,4.22
2019-04-12T07:52:21.797Z,4.67
2019-04-12T07:52:55.520Z,5.33
2019-04-12T07:53:41.586Z,5.58
2019-04-12T07:54:38.145Z,4.70
2019-04-12T07:55:17.241Z,4.80
2019-04-12T07:56:05.278Z,5.87
2019-04-12T07:56:39.083Z,4.47
2019-04-12T07:57:32.121Z,4.25
2019-04-12T07:58:11.158Z,5.20
2019-04-12T07:58:58.871Z,5.65
2019-04-12T07:59:32.944Z,4.22
2019-04-12T08:00:25.645Z,5.95
2019-04-12T08:01:16.934Z,4.90
2019-04-12T08:01:58.010Z,6.37
2019-04-12T08:03:03.186Z,7.72